sensor_id;sensor_type;location;lat;lon;timestamp;P1;durP1;ratioP1;P2;durP2;ratioP2
22652;SDS011;11493;43.344;26.226;2023-09-12T00:02:25;4.05;;;1.52;;
22652;SDS011;11493;43.344;26.226;2023-09-12T00:04:52;5.18;;;1.55;;
22652;SDS011;11493;43.344;26.226;2023-09-12T00:07:19;2.92;;;1.30;;
22652;SDS011;11493;43.344;26.226;2023-09-12T00:09:46;4.85;;;1.38;;
22652;SDS011;11493;43.344;26.226;2023-09-12T00:12:14;1.55;;;1.27;;
22652;SDS011;11493;43.344;26.226;2023-09-12T00:14:42;1.77;;;1.52;;
22652;SDS011;11493;43.344;26.226;2023-09-12T00:17:09;2.47;;;1.65;;
22652;SDS011;11493;43.344;26.226;2023-09-12T00:19:36;3.65;;;1.10;;
22652;SDS011;11493;43.344;26.226;2023-09-12T00:22:03;9.57;;;1.60;;
22652;SDS011;11493;43.344;26.226;2023-09-12T00:24:31;3.55;;;1.42;;
22652;SDS011;11493;43.344;26.226;2023-09-12T00:26:58;5.50;;;1.38;;
22652;SDS011;11493;43.344;26.226;2023-09-12T00:29:25;2.60;;;1.50;;
22652;SDS011;11493;43.344;26.226;2023-09-12T00:31:53;2.25;;;1.60;;
22652;SDS011;11493;43.344;26.226;2023-09-12T00:34:19;7.45;;;1.80;;
22652;SDS011;11493;43.344;26.226;2023-09-12T00:36:46;3.58;;;1.60;;
22652;SDS011;11493;43.344;26.226;2023-09-12T00:39:13;4.18;;;1.55;;
22652;SDS011;11493;43.344;26.226;2023-09-12T00:41:40;4.03;;;1.63;;
22652;SDS011;11493;43.344;26.226;2023-09-12T00:44:08;2.67;;;1.48;;
22652;SDS011;11493;43.344;26.226;2023-09-12T00:46:36;4.35;;;1.90;;
22652;SDS011;11493;43.344;26.226;2023-09-12T00:49:05;2.00;;;1.33;;
22652;SDS011;11493;43.344;26.226;2023-09-12T00:51:34;2.90;;;1.60;;
22652;SDS011;11493;43.344;26.226;2023-09-12T00:54:03;5.72;;;1.83;;
22652;SDS011;11493;43.344;26.226;2023-09-12T00:56:30;3.03;;;1.80;;
22652;SDS011;11493;43.344;26.226;2023-09-12T00:58:58;7.57;;;1.45;;
22652;SDS011;11493;43.344;26.226;2023-09-12T01:01:25;3.33;;;1.42;;
22652;SDS011;11493;43.344;26.226;2023-09-12T01:03:54;1.77;;;1.42;;
22652;SDS011;11493;43.344;26.226;2023-09-12T01:06:23;1.95;;;1.35;;
22652;SDS011;11493;43.344;26.226;2023-09-12T01:08:55;2.00;;;1.30;;
22652;SDS011;11493;43.344;26.226;2023-09-12T01:11:22;1.83;;;1.40;;
22652;SDS011;11493;43.344;26.226;2023-09-12T01:13:49;6.57;;;1.60;;
22652;SDS011;11493;43.344;26.226;2023-09-12T01:16:16;5.30;;;1.58;;
22652;SDS011;11493;43.344;26.226;2023-09-12T01:18:44;1.70;;;1.45;;
22652;SDS011;11493;43.344;26.226;2023-09-12T01:21:26;2.00;;;1.38;;
22652;SDS011;11493;43.344;26.226;2023-09-12T01:29:21;3.78;;;1.48;;
22652;SDS011;11493;43.344;26.226;2023-09-12T01:31:51;3.60;;;1.50;;
22652;SDS011;11493;43.344;26.226;2023-09-12T01:34:20;6.45;;;1.65;;
22652;SDS011;11493;43.344;26.226;2023-09-12T01:36:47;2.10;;;1.70;;
22652;SDS011;11493;43.344;26.226;2023-09-12T01:39:14;3.35;;;1.60;;
22652;SDS011;11493;43.344;26.226;2023-09-12T01:41:43;3.20;;;1.48;;
22652;SDS011;11493;43.344;26.226;2023-09-12T01:44:14;4.28;;;1.77;;
22652;SDS011;11493;43.344;26.226;2023-09-12T01:46:42;3.08;;;1.60;;
22652;SDS011;11493;43.344;26.226;2023-09-12T01:49:10;4.35;;;1.77;;
22652;SDS011;11493;43.344;26.226;2023-09-12T01:51:39;2.00;;;1.80;;
22652;SDS011;11493;43.344;26.226;2023-09-12T01:54:06;10.68;;;1.45;;
22652;SDS011;11493;43.344;26.226;2023-09-12T01:56:34;3.45;;;1.60;;
22652;SDS011;11493;43.344;26.226;2023-09-12T01:59:02;2.97;;;1.80;;
22652;SDS011;11493;43.344;26.226;2023-09-12T02:01:30;2.22;;;1.60;;
22652;SDS011;11493;43.344;26.226;2023-09-12T02:03:58;4.47;;;2.15;;
22652;SDS011;11493;43.344;26.226;2023-09-12T02:06:25;4.68;;;2.08;;
22652;SDS011;11493;43.344;26.226;2023-09-12T02:08:52;2.80;;;1.58;;
22652;SDS011;11493;43.344;26.226;2023-09-12T02:11:19;5.05;;;1.67;;
22652;SDS011;11493;43.344;26.226;2023-09-12T02:13:46;1.92;;;1.52;;
22652;SDS011;11493;43.344;26.226;2023-09-12T02:16:13;2.40;;;1.35;;
22652;SDS011;11493;43.344;26.226;2023-09-12T02:18:40;1.90;;;1.50;;
22652;SDS011;11493;43.344;26.226;2023-09-12T02:21:08;2.72;;;1.40;;
22652;SDS011;11493;43.344;26.226;2023-09-12T02:23:35;4.70;;;1.70;;
22652;SDS011;11493;43.344;26.226;2023-09-12T02:26:02;3.22;;;1.60;;
22652;SDS011;11493;43.344;26.226;2023-09-12T02:28:29;2.22;;;1.30;;
22652;SDS011;11493;43.344;26.226;2023-09-12T02:30:56;3.78;;;1.83;;
22652;SDS011;11493;43.344;26.226;2023-09-12T02:33:24;2.47;;;1.90;;
22652;SDS011;11493;43.344;26.226;2023-09-12T02:35:51;1.45;;;1.35;;
22652;SDS011;11493;43.344;26.226;2023-09-12T02:38:18;5.75;;;1.80;;
22652;SDS011;11493;43.344;26.226;2023-09-12T02:40:45;2.08;;;1.30;;
22652;SDS011;11493;43.344;26.226;2023-09-12T02:43:12;4.63;;;1.73;;
22652;SDS011;11493;43.344;26.226;2023-09-12T02:45:39;7.40;;;1.65;;
22652;SDS011;11493;43.344;26.226;2023-09-12T02:48:06;1.85;;;1.48;;
22652;SDS011;11493;43.344;26.226;2023-09-12T02:50:33;11.65;;;1.58;;
22652;SDS011;11493;43.344;26.226;2023-09-12T02:53:00;3.78;;;1.60;;
22652;SDS011;11493;43.344;26.226;2023-09-12T02:55:27;2.05;;;1.80;;
22652;SDS011;11493;43.344;26.226;2023-09-12T02:57:55;2.65;;;1.70;;
22652;SDS011;11493;43.344;26.226;2023-09-12T03:00:22;5.63;;;2.15;;
22652;SDS011;11493;43.344;26.226;2023-09-12T03:02:49;5.07;;;2.10;;
22652;SDS011;11493;43.344;26.226;2023-09-12T03:05:16;2.97;;;2.10;;
22652;SDS011;11493;43.344;26.226;2023-09-12T03:07:43;4.82;;;2.05;;
22652;SDS011;11493;43.344;26.226;2023-09-12T03:10:10;4.10;;;1.73;;
22652;SDS011;11493;43.344;26.226;2023-09-12T03:12:37;2.92;;;2.63;;
22652;SDS011;11493;43.344;26.226;2023-09-12T03:15:04;6.22;;;3.17;;
22652;SDS011;11493;43.344;26.226;2023-09-12T03:20:03;3.22;;;2.00;;
22652;SDS011;11493;43.344;26.226;2023-09-12T03:22:34;4.13;;;1.75;;
22652;SDS011;11493;43.344;26.226;2023-09-12T03:27:33;7.82;;;2.42;;
22652;SDS011;11493;43.344;26.226;2023-09-12T03:30:00;6.45;;;2.30;;
22652;SDS011;11493;43.344;26.226;2023-09-12T03:32:27;2.60;;;1.80;;
22652;SDS011;11493;43.344;26.226;2023-09-12T03:34:54;3.08;;;1.73;;
22652;SDS011;11493;43.344;26.226;2023-09-12T03:37:21;2.00;;;1.70;;
22652;SDS011;11493;43.344;26.226;2023-09-12T03:39:48;5.45;;;2.00;;
22652;SDS011;11493;43.344;26.226;2023-09-12T03:42:15;2.50;;;1.60;;
22652;SDS011;11493;43.344;26.226;2023-09-12T03:44:43;4.30;;;2.00;;
22652;SDS011;11493;43.344;26.226;2023-09-12T03:47:10;2.85;;;1.77;;
22652;SDS011;11493;43.344;26.226;2023-09-12T03:49:37;1.80;;;1.70;;
22652;SDS011;11493;43.344;26.226;2023-09-12T03:52:04;1.88;;;1.58;;
22652;SDS011;11493;43.344;26.226;2023-09-12T03:54:32;7.55;;;2.10;;
22652;SDS011;11493;43.344;26.226;2023-09-12T03:56:59;5.25;;;2.45;;
22652;SDS011;11493;43.344;26.226;2023-09-12T03:59:27;11.63;;;2.90;;
22652;SDS011;11493;43.344;26.226;2023-09-12T04:01:53;5.00;;;2.20;;
22652;SDS011;11493;43.344;26.226;2023-09-12T04:04:21;7.55;;;1.90;;
22652;SDS011;11493;43.344;26.226;2023-09-12T04:06:48;3.22;;;2.03;;
22652;SDS011;11493;43.344;26.226;2023-09-12T04:09:16;7.22;;;2.08;;
22652;SDS011;11493;43.344;26.226;2023-09-12T04:11:43;7.30;;;1.75;;
22652;SDS011;11493;43.344;26.226;2023-09-12T04:14:13;4.72;;;1.83;;
22652;SDS011;11493;43.344;26.226;2023-09-12T04:16:41;6.05;;;1.75;;
22652;SDS011;11493;43.344;26.226;2023-09-12T04:19:08;7.30;;;2.10;;
22652;SDS011;11493;43.344;26.226;2023-09-12T04:21:35;5.05;;;1.90;;
22652;SDS011;11493;43.344;26.226;2023-09-12T04:24:02;2.70;;;2.08;;
22652;SDS011;11493;43.344;26.226;2023-09-12T04:26:29;9.77;;;3.08;;
22652;SDS011;11493;43.344;26.226;2023-09-12T04:28:56;3.63;;;2.28;;
22652;SDS011;11493;43.344;26.226;2023-09-12T04:31:23;5.95;;;2.50;;
22652;SDS011;11493;43.344;26.226;2023-09-12T04:33:51;2.95;;;2.05;;
22652;SDS011;11493;43.344;26.226;2023-09-12T04:36:19;2.47;;;2.28;;
22652;SDS011;11493;43.344;26.226;2023-09-12T04:38:47;3.67;;;1.80;;
22652;SDS011;11493;43.344;26.226;2023-09-12T04:41:14;4.80;;;1.55;;
22652;SDS011;11493;43.344;26.226;2023-09-12T04:43:43;3.72;;;1.63;;
22652;SDS011;11493;43.344;26.226;2023-09-12T04:46:11;9.50;;;2.72;;
22652;SDS011;11493;43.344;26.226;2023-09-12T04:48:39;7.43;;;1.52;;
22652;SDS011;11493;43.344;26.226;2023-09-12T04:51:07;2.72;;;1.73;;
22652;SDS011;11493;43.344;26.226;2023-09-12T04:53:34;4.55;;;1.30;;
22652;SDS011;11493;43.344;26.226;2023-09-12T04:56:03;5.53;;;1.75;;
22652;SDS011;11493;43.344;26.226;2023-09-12T04:58:33;3.97;;;1.65;;
22652;SDS011;11493;43.344;26.226;2023-09-12T05:01:00;4.32;;;2.30;;
22652;SDS011;11493;43.344;26.226;2023-09-12T05:03:27;7.40;;;2.88;;
22652;SDS011;11493;43.344;26.226;2023-09-12T05:05:54;5.85;;;3.13;;
22652;SDS011;11493;43.344;26.226;2023-09-12T05:08:22;3.83;;;2.35;;
22652;SDS011;11493;43.344;26.226;2023-09-12T05:10:50;4.90;;;2.35;;
22652;SDS011;11493;43.344;26.226;2023-09-12T05:13:18;3.63;;;2.15;;
22652;SDS011;11493;43.344;26.226;2023-09-12T05:15:46;3.10;;;2.08;;
22652;SDS011;11493;43.344;26.226;2023-09-12T05:18:13;2.38;;;1.88;;
22652;SDS011;11493;43.344;26.226;2023-09-12T05:20:41;2.90;;;1.83;;
22652;SDS011;11493;43.344;26.226;2023-09-12T05:23:08;3.35;;;1.77;;
22652;SDS011;11493;43.344;26.226;2023-09-12T05:25:35;2.90;;;1.65;;
22652;SDS011;11493;43.344;26.226;2023-09-12T05:28:02;7.10;;;1.85;;
22652;SDS011;11493;43.344;26.226;2023-09-12T05:30:30;4.15;;;1.60;;
22652;SDS011;11493;43.344;26.226;2023-09-12T05:32:58;5.85;;;1.80;;
22652;SDS011;11493;43.344;26.226;2023-09-12T05:35:25;2.25;;;1.80;;
22652;SDS011;11493;43.344;26.226;2023-09-12T05:37:52;2.33;;;1.92;;
22652;SDS011;11493;43.344;26.226;2023-09-12T05:40:20;6.55;;;3.10;;
22652;SDS011;11493;43.344;26.226;2023-09-12T05:42:47;5.78;;;3.03;;
22652;SDS011;11493;43.344;26.226;2023-09-12T05:45:14;20.67;;;3.38;;
22652;SDS011;11493;43.344;26.226;2023-09-12T05:47:41;8.18;;;3.95;;
22652;SDS011;11493;43.344;26.226;2023-09-12T05:50:09;9.95;;;3.72;;
22652;SDS011;11493;43.344;26.226;2023-09-12T05:52:36;4.60;;;3.40;;
22652;SDS011;11493;43.344;26.226;2023-09-12T05:55:03;4.20;;;3.13;;
22652;SDS011;11493;43.344;26.226;2023-09-12T05:57:31;3.83;;;2.83;;
22652;SDS011;11493;43.344;26.226;2023-09-12T06:00:01;4.63;;;2.73;;
22652;SDS011;11493;43.344;26.226;2023-09-12T06:02:40;9.32;;;2.83;;
22652;SDS011;11493;43.344;26.226;2023-09-12T06:05:09;10.43;;;3.72;;
22652;SDS011;11493;43.344;26.226;2023-09-12T06:07:36;8.13;;;2.50;;
22652;SDS011;11493;43.344;26.226;2023-09-12T06:12:34;8.13;;;2.50;;
22652;SDS011;11493;43.344;26.226;2023-09-12T06:15:03;5.22;;;2.25;;
22652;SDS011;11493;43.344;26.226;2023-09-12T06:17:31;6.47;;;3.15;;
22652;SDS011;11493;43.344;26.226;2023-09-12T06:19:58;15.23;;;3.05;;
22652;SDS011;11493;43.344;26.226;2023-09-12T06:22:26;12.10;;;4.63;;
22652;SDS011;11493;43.344;26.226;2023-09-12T06:24:53;4.72;;;3.28;;
22652;SDS011;11493;43.344;26.226;2023-09-12T06:27:20;11.75;;;3.00;;
22652;SDS011;11493;43.344;26.226;2023-09-12T06:29:47;15.35;;;4.38;;
22652;SDS011;11493;43.344;26.226;2023-09-12T06:32:16;10.50;;;3.92;;
22652;SDS011;11493;43.344;26.226;2023-09-12T06:34:44;20.48;;;4.93;;
22652;SDS011;11493;43.344;26.226;2023-09-12T06:37:11;28.38;;;5.65;;
22652;SDS011;11493;43.344;26.226;2023-09-12T06:39:39;32.95;;;9.73;;
22652;SDS011;11493;43.344;26.226;2023-09-12T06:42:06;56.08;;;21.20;;
22652;SDS011;11493;43.344;26.226;2023-09-12T06:44:34;69.70;;;21.75;;
22652;SDS011;11493;43.344;26.226;2023-09-12T06:47:03;56.38;;;18.38;;
22652;SDS011;11493;43.344;26.226;2023-09-12T06:49:31;33.63;;;11.75;;
22652;SDS011;11493;43.344;26.226;2023-09-12T06:52:01;24.77;;;9.73;;
22652;SDS011;11493;43.344;26.226;2023-09-12T06:54:29;23.73;;;8.43;;
22652;SDS011;11493;43.344;26.226;2023-09-12T06:56:56;26.65;;;8.20;;
22652;SDS011;11493;43.344;26.226;2023-09-12T06:59:23;24.13;;;7.07;;
22652;SDS011;11493;43.344;26.226;2023-09-12T07:01:50;27.98;;;7.32;;
22652;SDS011;11493;43.344;26.226;2023-09-12T07:04:17;29.38;;;6.32;;
22652;SDS011;11493;43.344;26.226;2023-09-12T07:06:44;19.73;;;5.25;;
22652;SDS011;11493;43.344;26.226;2023-09-12T07:09:12;23.23;;;5.03;;
22652;SDS011;11493;43.344;26.226;2023-09-12T07:11:41;13.90;;;3.60;;
22652;SDS011;11493;43.344;26.226;2023-09-12T07:14:09;10.32;;;4.40;;
22652;SDS011;11493;43.344;26.226;2023-09-12T07:16:36;11.85;;;2.60;;
22652;SDS011;11493;43.344;26.226;2023-09-12T07:19:04;26.17;;;3.10;;
22652;SDS011;11493;43.344;26.226;2023-09-12T07:21:31;5.60;;;2.70;;
22652;SDS011;11493;43.344;26.226;2023-09-12T07:23:59;7.75;;;2.78;;
22652;SDS011;11493;43.344;26.226;2023-09-12T07:26:26;16.65;;;2.83;;
22652;SDS011;11493;43.344;26.226;2023-09-12T07:28:54;9.68;;;2.90;;
22652;SDS011;11493;43.344;26.226;2023-09-12T07:31:21;15.65;;;2.20;;
22652;SDS011;11493;43.344;26.226;2023-09-12T07:33:49;7.18;;;1.80;;
22652;SDS011;11493;43.344;26.226;2023-09-12T07:36:16;6.90;;;1.48;;
22652;SDS011;11493;43.344;26.226;2023-09-12T07:38:43;4.45;;;2.28;;
22652;SDS011;11493;43.344;26.226;2023-09-12T07:41:12;9.00;;;1.75;;
22652;SDS011;11493;43.344;26.226;2023-09-12T07:43:39;9.27;;;1.77;;
22652;SDS011;11493;43.344;26.226;2023-09-12T07:46:07;6.30;;;1.70;;
22652;SDS011;11493;43.344;26.226;2023-09-12T07:48:34;1.92;;;1.60;;
22652;SDS011;11493;43.344;26.226;2023-09-12T07:51:10;17.70;;;1.58;;
22652;SDS011;11493;43.344;26.226;2023-09-12T07:53:38;12.25;;;1.73;;
22652;SDS011;11493;43.344;26.226;2023-09-12T07:56:07;6.40;;;1.60;;
22652;SDS011;11493;43.344;26.226;2023-09-12T07:58:36;5.72;;;1.70;;
22652;SDS011;11493;43.344;26.226;2023-09-12T08:01:07;11.63;;;2.88;;
22652;SDS011;11493;43.344;26.226;2023-09-12T08:03:37;11.07;;;2.00;;
22652;SDS011;11493;43.344;26.226;2023-09-12T08:06:06;4.25;;;1.52;;
22652;SDS011;11493;43.344;26.226;2023-09-12T08:08:33;7.63;;;2.67;;
22652;SDS011;11493;43.344;26.226;2023-09-12T08:11:01;13.35;;;3.22;;
22652;SDS011;11493;43.344;26.226;2023-09-12T08:13:29;4.07;;;2.90;;
22652;SDS011;11493;43.344;26.226;2023-09-12T08:15:57;11.20;;;3.38;;
22652;SDS011;11493;43.344;26.226;2023-09-12T08:18:26;10.65;;;2.33;;
22652;SDS011;11493;43.344;26.226;2023-09-12T08:20:56;13.98;;;3.28;;
22652;SDS011;11493;43.344;26.226;2023-09-12T08:23:23;10.18;;;2.53;;
22652;SDS011;11493;43.344;26.226;2023-09-12T08:25:51;19.23;;;2.50;;
22652;SDS011;11493;43.344;26.226;2023-09-12T08:28:17;6.93;;;1.70;;
22652;SDS011;11493;43.344;26.226;2023-09-12T08:30:45;8.70;;;1.65;;
22652;SDS011;11493;43.344;26.226;2023-09-12T08:33:15;7.68;;;1.48;;
22652;SDS011;11493;43.344;26.226;2023-09-12T08:35:42;5.15;;;1.25;;
22652;SDS011;11493;43.344;26.226;2023-09-12T08:38:10;8.38;;;1.70;;
22652;SDS011;11493;43.344;26.226;2023-09-12T08:40:37;11.50;;;2.20;;
22652;SDS011;11493;43.344;26.226;2023-09-12T08:43:04;8.73;;;1.90;;
22652;SDS011;11493;43.344;26.226;2023-09-12T08:45:31;18.05;;;1.90;;
22652;SDS011;11493;43.344;26.226;2023-09-12T08:47:59;10.02;;;1.70;;
22652;SDS011;11493;43.344;26.226;2023-09-12T08:50:27;10.25;;;2.15;;
22652;SDS011;11493;43.344;26.226;2023-09-12T08:53:00;8.85;;;2.47;;
22652;SDS011;11493;43.344;26.226;2023-09-12T08:55:34;10.70;;;1.60;;
22652;SDS011;11493;43.344;26.226;2023-09-12T08:58:03;4.93;;;1.70;;
22652;SDS011;11493;43.344;26.226;2023-09-12T09:00:31;7.47;;;1.55;;
22652;SDS011;11493;43.344;26.226;2023-09-12T09:02:59;6.95;;;1.92;;
22652;SDS011;11493;43.344;26.226;2023-09-12T09:05:27;15.73;;;1.50;;
22652;SDS011;11493;43.344;26.226;2023-09-12T09:07:56;7.28;;;1.70;;
22652;SDS011;11493;43.344;26.226;2023-09-12T09:10:25;7.22;;;1.80;;
22652;SDS011;11493;43.344;26.226;2023-09-12T09:13:13;7.95;;;1.70;;
22652;SDS011;11493;43.344;26.226;2023-09-12T09:15:41;7.28;;;1.60;;
22652;SDS011;11493;43.344;26.226;2023-09-12T09:18:09;3.97;;;1.75;;
22652;SDS011;11493;43.344;26.226;2023-09-12T09:20:39;6.93;;;1.48;;
22652;SDS011;11493;43.344;26.226;2023-09-12T09:23:09;8.90;;;1.40;;
22652;SDS011;11493;43.344;26.226;2023-09-12T09:25:41;12.98;;;1.48;;
22652;SDS011;11493;43.344;26.226;2023-09-12T09:28:19;13.10;;;2.10;;
22652;SDS011;11493;43.344;26.226;2023-09-12T09:30:50;8.88;;;1.73;;
22652;SDS011;11493;43.344;26.226;2023-09-12T09:33:19;11.68;;;1.98;;
22652;SDS011;11493;43.344;26.226;2023-09-12T09:35:47;6.22;;;1.25;;
22652;SDS011;11493;43.344;26.226;2023-09-12T09:38:18;11.25;;;1.55;;
22652;SDS011;11493;43.344;26.226;2023-09-12T09:40:47;9.50;;;1.70;;
22652;SDS011;11493;43.344;26.226;2023-09-12T09:43:19;7.75;;;1.63;;
22652;SDS011;11493;43.344;26.226;2023-09-12T09:45:47;9.50;;;1.55;;
22652;SDS011;11493;43.344;26.226;2023-09-12T09:48:22;3.50;;;1.65;;
22652;SDS011;11493;43.344;26.226;2023-09-12T09:50:51;20.65;;;2.80;;
22652;SDS011;11493;43.344;26.226;2023-09-12T09:53:31;5.82;;;1.90;;
22652;SDS011;11493;43.344;26.226;2023-09-12T09:56:11;8.57;;;1.67;;
22652;SDS011;11493;43.344;26.226;2023-09-12T09:58:45;9.20;;;1.70;;
22652;SDS011;11493;43.344;26.226;2023-09-12T10:01:28;8.93;;;1.50;;
22652;SDS011;11493;43.344;26.226;2023-09-12T10:03:58;7.95;;;1.95;;
22652;SDS011;11493;43.344;26.226;2023-09-12T10:06:27;8.50;;;1.73;;
22652;SDS011;11493;43.344;26.226;2023-09-12T10:08:56;7.90;;;1.60;;
22652;SDS011;11493;43.344;26.226;2023-09-12T10:11:27;2.70;;;1.50;;
22652;SDS011;11493;43.344;26.226;2023-09-12T10:13:55;7.40;;;1.88;;
22652;SDS011;11493;43.344;26.226;2023-09-12T10:16:24;14.70;;;1.98;;
22652;SDS011;11493;43.344;26.226;2023-09-12T10:19:04;11.30;;;2.17;;
22652;SDS011;11493;43.344;26.226;2023-09-12T10:21:52;8.65;;;1.88;;
22652;SDS011;11493;43.344;26.226;2023-09-12T10:24:30;7.10;;;1.75;;
22652;SDS011;11493;43.344;26.226;2023-09-12T10:26:59;6.97;;;1.48;;
22652;SDS011;11493;43.344;26.226;2023-09-12T10:29:28;2.92;;;1.50;;
22652;SDS011;11493;43.344;26.226;2023-09-12T10:31:56;8.45;;;1.70;;
22652;SDS011;11493;43.344;26.226;2023-09-12T10:34:24;9.00;;;2.30;;
22652;SDS011;11493;43.344;26.226;2023-09-12T10:36:53;10.75;;;2.03;;
22652;SDS011;11493;43.344;26.226;2023-09-12T10:39:24;5.97;;;2.17;;
22652;SDS011;11493;43.344;26.226;2023-09-12T10:41:55;5.38;;;2.05;;
22652;SDS011;11493;43.344;26.226;2023-09-12T10:44:24;9.57;;;2.45;;
22652;SDS011;11493;43.344;26.226;2023-09-12T10:46:53;12.13;;;1.70;;
22652;SDS011;11493;43.344;26.226;2023-09-12T10:49:22;8.32;;;1.83;;
22652;SDS011;11493;43.344;26.226;2023-09-12T10:51:53;4.68;;;2.08;;
22652;SDS011;11493;43.344;26.226;2023-09-12T10:57:09;6.40;;;1.58;;
22652;SDS011;11493;43.344;26.226;2023-09-12T11:02:29;2.15;;;1.33;;
22652;SDS011;11493;43.344;26.226;2023-09-12T11:04:59;7.68;;;1.80;;
22652;SDS011;11493;43.344;26.226;2023-09-12T11:12:43;11.10;;;1.90;;
22652;SDS011;11493;43.344;26.226;2023-09-12T11:15:13;6.47;;;2.00;;
22652;SDS011;11493;43.344;26.226;2023-09-12T11:17:43;10.88;;;2.17;;
22652;SDS011;11493;43.344;26.226;2023-09-12T11:20:13;7.63;;;2.10;;
22652;SDS011;11493;43.344;26.226;2023-09-12T11:22:43;6.35;;;1.90;;
22652;SDS011;11493;43.344;26.226;2023-09-12T11:30:24;4.13;;;1.85;;
22652;SDS011;11493;43.344;26.226;2023-09-12T11:32:53;8.07;;;1.80;;
22652;SDS011;11493;43.344;26.226;2023-09-12T11:35:22;6.90;;;2.30;;
22652;SDS011;11493;43.344;26.226;2023-09-12T11:37:57;10.02;;;1.88;;
22652;SDS011;11493;43.344;26.226;2023-09-12T11:40:43;5.45;;;1.77;;
22652;SDS011;11493;43.344;26.226;2023-09-12T11:43:19;6.97;;;2.08;;
22652;SDS011;11493;43.344;26.226;2023-09-12T11:45:51;5.25;;;2.00;;
22652;SDS011;11493;43.344;26.226;2023-09-12T11:48:19;4.63;;;2.45;;
22652;SDS011;11493;43.344;26.226;2023-09-12T11:50:53;7.20;;;1.80;;
22652;SDS011;11493;43.344;26.226;2023-09-12T11:53:25;5.97;;;1.83;;
22652;SDS011;11493;43.344;26.226;2023-09-12T11:55:58;7.45;;;1.65;;
22652;SDS011;11493;43.344;26.226;2023-09-12T11:58:26;8.85;;;2.25;;
22652;SDS011;11493;43.344;26.226;2023-09-12T12:00:55;3.63;;;2.10;;
22652;SDS011;11493;43.344;26.226;2023-09-12T12:03:25;7.95;;;1.88;;
22652;SDS011;11493;43.344;26.226;2023-09-12T12:05:57;3.08;;;1.98;;
22652;SDS011;11493;43.344;26.226;2023-09-12T12:08:24;6.93;;;1.85;;
22652;SDS011;11493;43.344;26.226;2023-09-12T12:10:58;5.22;;;1.77;;
22652;SDS011;11493;43.344;26.226;2023-09-12T12:13:26;4.22;;;2.00;;
22652;SDS011;11493;43.344;26.226;2023-09-12T12:15:57;5.63;;;1.95;;
22652;SDS011;11493;43.344;26.226;2023-09-12T12:18:24;9.88;;;1.98;;
22652;SDS011;11493;43.344;26.226;2023-09-12T12:20:53;7.40;;;2.00;;
22652;SDS011;11493;43.344;26.226;2023-09-12T12:23:20;5.32;;;1.88;;
22652;SDS011;11493;43.344;26.226;2023-09-12T12:25:47;9.13;;;2.00;;
22652;SDS011;11493;43.344;26.226;2023-09-12T12:28:15;7.60;;;1.90;;
22652;SDS011;11493;43.344;26.226;2023-09-12T12:30:43;8.68;;;1.90;;
22652;SDS011;11493;43.344;26.226;2023-09-12T12:33:11;4.10;;;2.22;;
22652;SDS011;11493;43.344;26.226;2023-09-12T12:36:04;3.65;;;1.73;;
22652;SDS011;11493;43.344;26.226;2023-09-12T12:38:36;8.95;;;2.00;;
22652;SDS011;11493;43.344;26.226;2023-09-12T12:41:13;6.25;;;1.70;;
22652;SDS011;11493;43.344;26.226;2023-09-12T12:43:42;9.00;;;2.22;;
22652;SDS011;11493;43.344;26.226;2023-09-12T12:46:10;5.07;;;2.72;;
22652;SDS011;11493;43.344;26.226;2023-09-12T12:48:42;8.55;;;3.42;;
22652;SDS011;11493;43.344;26.226;2023-09-12T12:51:17;7.18;;;2.38;;
22652;SDS011;11493;43.344;26.226;2023-09-12T12:53:50;12.63;;;1.70;;
22652;SDS011;11493;43.344;26.226;2023-09-12T12:56:22;3.28;;;1.65;;
22652;SDS011;11493;43.344;26.226;2023-09-12T12:58:52;13.05;;;1.95;;
22652;SDS011;11493;43.344;26.226;2023-09-12T13:01:22;8.63;;;1.98;;
22652;SDS011;11493;43.344;26.226;2023-09-12T13:03:50;11.48;;;2.38;;
22652;SDS011;11493;43.344;26.226;2023-09-12T13:06:18;4.85;;;1.65;;
22652;SDS011;11493;43.344;26.226;2023-09-12T13:08:46;10.40;;;2.03;;
22652;SDS011;11493;43.344;26.226;2023-09-12T13:11:15;7.63;;;2.70;;
22652;SDS011;11493;43.344;26.226;2023-09-12T13:13:44;6.38;;;1.95;;
22652;SDS011;11493;43.344;26.226;2023-09-12T13:16:13;15.73;;;2.40;;
22652;SDS011;11493;43.344;26.226;2023-09-12T13:18:41;9.73;;;1.90;;
22652;SDS011;11493;43.344;26.226;2023-09-12T13:21:09;15.40;;;2.83;;
22652;SDS011;11493;43.344;26.226;2023-09-12T13:23:36;7.88;;;2.00;;
22652;SDS011;11493;43.344;26.226;2023-09-12T13:26:06;3.60;;;2.03;;
22652;SDS011;11493;43.344;26.226;2023-09-12T13:28:35;6.20;;;2.10;;
22652;SDS011;11493;43.344;26.226;2023-09-12T13:31:02;5.38;;;2.22;;
22652;SDS011;11493;43.344;26.226;2023-09-12T13:33:30;5.28;;;1.70;;
22652;SDS011;11493;43.344;26.226;2023-09-12T13:35:58;5.22;;;2.30;;
22652;SDS011;11493;43.344;26.226;2023-09-12T13:38:25;4.63;;;2.03;;
22652;SDS011;11493;43.344;26.226;2023-09-12T13:40:52;8.00;;;2.10;;
22652;SDS011;11493;43.344;26.226;2023-09-12T13:43:20;8.70;;;2.35;;
22652;SDS011;11493;43.344;26.226;2023-09-12T13:45:47;9.60;;;2.20;;
22652;SDS011;11493;43.344;26.226;2023-09-12T13:48:14;6.25;;;2.30;;
22652;SDS011;11493;43.344;26.226;2023-09-12T13:50:41;3.58;;;1.60;;
22652;SDS011;11493;43.344;26.226;2023-09-12T13:53:11;16.08;;;2.60;;
22652;SDS011;11493;43.344;26.226;2023-09-12T13:55:39;5.85;;;2.20;;
22652;SDS011;11493;43.344;26.226;2023-09-12T13:58:26;6.50;;;1.70;;
22652;SDS011;11493;43.344;26.226;2023-09-12T14:01:06;7.40;;;2.13;;
22652;SDS011;11493;43.344;26.226;2023-09-12T14:03:35;9.63;;;2.03;;
22652;SDS011;11493;43.344;26.226;2023-09-12T14:06:03;7.38;;;1.80;;
22652;SDS011;11493;43.344;26.226;2023-09-12T14:08:31;11.07;;;2.10;;
22652;SDS011;11493;43.344;26.226;2023-09-12T14:11:01;7.33;;;2.13;;
22652;SDS011;11493;43.344;26.226;2023-09-12T14:13:32;8.93;;;2.10;;
22652;SDS011;11493;43.344;26.226;2023-09-12T14:15:59;4.88;;;2.03;;
22652;SDS011;11493;43.344;26.226;2023-09-12T14:18:27;7.72;;;2.42;;
22652;SDS011;11493;43.344;26.226;2023-09-12T14:20:56;10.65;;;2.08;;
22652;SDS011;11493;43.344;26.226;2023-09-12T14:23:24;11.57;;;2.30;;
22652;SDS011;11493;43.344;26.226;2023-09-12T14:25:52;5.72;;;1.92;;
22652;SDS011;11493;43.344;26.226;2023-09-12T14:28:20;5.53;;;1.75;;
22652;SDS011;11493;43.344;26.226;2023-09-12T14:30:48;12.68;;;2.00;;
22652;SDS011;11493;43.344;26.226;2023-09-12T14:33:16;7.93;;;1.75;;
22652;SDS011;11493;43.344;26.226;2023-09-12T14:35:45;15.65;;;1.90;;
22652;SDS011;11493;43.344;26.226;2023-09-12T14:38:14;9.07;;;2.17;;
22652;SDS011;11493;43.344;26.226;2023-09-12T14:40:41;10.63;;;2.20;;
22652;SDS011;11493;43.344;26.226;2023-09-12T14:43:11;8.35;;;2.28;;
22652;SDS011;11493;43.344;26.226;2023-09-12T14:45:38;7.18;;;1.80;;
22652;SDS011;11493;43.344;26.226;2023-09-12T14:48:07;7.50;;;1.85;;
22652;SDS011;11493;43.344;26.226;2023-09-12T14:50:34;15.80;;;3.28;;
22652;SDS011;11493;43.344;26.226;2023-09-12T14:53:10;8.73;;;2.17;;
22652;SDS011;11493;43.344;26.226;2023-09-12T14:55:40;8.27;;;1.88;;
22652;SDS011;11493;43.344;26.226;2023-09-12T14:58:17;10.23;;;2.38;;
22652;SDS011;11493;43.344;26.226;2023-09-12T15:00:44;11.02;;;2.58;;
22652;SDS011;11493;43.344;26.226;2023-09-12T15:03:11;6.45;;;2.17;;
22652;SDS011;11493;43.344;26.226;2023-09-12T15:05:39;13.88;;;2.35;;
22652;SDS011;11493;43.344;26.226;2023-09-12T15:08:06;6.95;;;2.03;;
22652;SDS011;11493;43.344;26.226;2023-09-12T15:10:33;5.15;;;2.00;;